sensor_id;sensor_type;location;lat;lon;timestamp;pressure;altitude;pressure_sealevel;temperature;humidity
64668;BME280;51077;42.716;23.344;2023-06-19T00:01:42;95470.25;;;19.22;65.02
64668;BME280;51077;42.716;23.344;2023-06-19T00:04:09;95460.97;;;19.19;65.24
64668;BME280;51077;42.716;23.344;2023-06-19T00:06:35;95467.09;;;19.18;65.31
64668;BME280;51077;42.716;23.344;2023-06-19T00:09:00;95461.69;;;19.20;65.29
64668;BME280;51077;42.716;23.344;2023-06-19T00:11:25;95463.59;;;19.17;65.26
64668;BME280;51077;42.716;23.344;2023-06-19T00:13:51;95448.22;;;19.16;65.40
64668;BME280;51077;42.716;23.344;2023-06-19T00:16:17;95457.28;;;19.17;65.35
64668;BME280;51077;42.716;23.344;2023-06-19T00:18:43;95455.81;;;19.16;65.33
64668;BME280;51077;42.716;23.344;2023-06-19T00:21:08;95443.19;;;19.15;65.45
64668;BME280;51077;42.716;23.344;2023-06-19T00:23:34;95450.06;;;19.14;65.50
64668;BME280;51077;42.716;23.344;2023-06-19T00:26:00;95451.38;;;19.13;65.55
64668;BME280;51077;42.716;23.344;2023-06-19T00:28:30;95442.84;;;19.11;65.61
64668;BME280;51077;42.716;23.344;2023-06-19T00:30:55;95446.75;;;19.07;65.77
64668;BME280;51077;42.716;23.344;2023-06-19T00:33:21;95446.41;;;19.03;65.69
64668;BME280;51077;42.716;23.344;2023-06-19T00:35:47;95449.19;;;19.03;65.84
64668;BME280;51077;42.716;23.344;2023-06-19T00:38:13;95441.97;;;19.00;65.66
64668;BME280;51077;42.716;23.344;2023-06-19T00:40:39;95438.25;;;18.98;65.75
64668;BME280;51077;42.716;23.344;2023-06-19T00:43:05;95435.31;;;18.96;65.69
64668;BME280;51077;42.716;23.344;2023-06-19T00:45:30;95435.16;;;18.94;65.91
64668;BME280;51077;42.716;23.344;2023-06-19T00:47:57;95432.94;;;18.92;65.87
64668;BME280;51077;42.716;23.344;2023-06-19T00:50:23;95434.81;;;18.90;66.10
64668;BME280;51077;42.716;23.344;2023-06-19T00:52:49;95431.09;;;18.87;66.03
64668;BME280;51077;42.716;23.344;2023-06-19T00:55:15;95426.13;;;18.86;65.86
64668;BME280;51077;42.716;23.344;2023-06-19T00:57:41;95426.50;;;18.82;65.95
64668;BME280;51077;42.716;23.344;2023-06-19T01:00:08;95424.84;;;18.79;66.05
64668;BME280;51077;42.716;23.344;2023-06-19T01:02:34;95412.03;;;18.76;66.03
64668;BME280;51077;42.716;23.344;2023-06-19T01:05:00;95411.16;;;18.73;65.97
64668;BME280;51077;42.716;23.344;2023-06-19T01:10:08;95415.59;;;18.69;66.16
64668;BME280;51077;42.716;23.344;2023-06-19T01:12:43;95413.34;;;18.67;66.19
64668;BME280;51077;42.716;23.344;2023-06-19T01:15:14;95422.09;;;18.64;66.22
64668;BME280;51077;42.716;23.344;2023-06-19T01:17:40;95418.41;;;18.61;66.38
64668;BME280;51077;42.716;23.344;2023-06-19T01:20:06;95420.25;;;18.58;66.35
64668;BME280;51077;42.716;23.344;2023-06-19T01:22:36;95420.09;;;18.56;66.39
64668;BME280;51077;42.716;23.344;2023-06-19T01:25:01;95421.19;;;18.53;66.52
64668;BME280;51077;42.716;23.344;2023-06-19T01:27:27;95417.50;;;18.51;66.37
64668;BME280;51077;42.716;23.344;2023-06-19T01:29:57;95417.91;;;18.47;66.61
64668;BME280;51077;42.716;23.344;2023-06-19T01:35:21;95422.91;;;18.41;66.71
64668;BME280;51077;42.716;23.344;2023-06-19T01:37:49;95422.75;;;18.39;66.86
64668;BME280;51077;42.716;23.344;2023-06-19T01:40:17;95421.06;;;18.36;66.98
64668;BME280;51077;42.716;23.344;2023-06-19T01:42:43;95432.03;;;18.34;67.00
64668;BME280;51077;42.716;23.344;2023-06-19T01:45:09;95438.69;;;18.31;67.09
64668;BME280;51077;42.716;23.344;2023-06-19T01:47:34;95430.00;;;18.27;67.37
64668;BME280;51077;42.716;23.344;2023-06-19T01:50:00;95429.09;;;18.24;67.28
64668;BME280;51077;42.716;23.344;2023-06-19T01:52:25;95430.19;;;18.21;67.36
64668;BME280;51077;42.716;23.344;2023-06-19T01:54:51;95425.22;;;18.20;67.39
64668;BME280;51077;42.716;23.344;2023-06-19T01:57:17;95425.56;;;18.16;67.68
64668;BME280;51077;42.716;23.344;2023-06-19T01:59:43;95432.97;;;18.14;67.66
64668;BME280;51077;42.716;23.344;2023-06-19T02:02:08;95434.28;;;18.13;67.77
64668;BME280;51077;42.716;23.344;2023-06-19T02:04:34;95435.41;;;18.09;67.74
64668;BME280;51077;42.716;23.344;2023-06-19T02:07:00;95447.63;;;18.06;67.86
64668;BME280;51077;42.716;23.344;2023-06-19T02:30:13;95442.09;;;17.91;67.73
64668;BME280;51077;42.716;23.344;2023-06-19T02:32:39;95451.72;;;17.90;67.88
64668;BME280;51077;42.716;23.344;2023-06-19T02:35:06;95447.44;;;17.89;67.80
64668;BME280;51077;42.716;23.344;2023-06-19T02:37:34;95458.56;;;17.89;67.85
64668;BME280;51077;42.716;23.344;2023-06-19T02:40:01;95459.13;;;17.88;68.00
64668;BME280;51077;42.716;23.344;2023-06-19T02:42:28;95459.69;;;17.86;67.96
64668;BME280;51077;42.716;23.344;2023-06-19T02:44:53;95457.44;;;17.84;67.81
64668;BME280;51077;42.716;23.344;2023-06-19T02:47:19;95457.44;;;17.84;67.79
64668;BME280;51077;42.716;23.344;2023-06-19T02:49:44;95453.94;;;17.84;67.76
64668;BME280;51077;42.716;23.344;2023-06-19T02:52:09;95455.22;;;17.83;67.84
64668;BME280;51077;42.716;23.344;2023-06-19T02:54:35;95463.41;;;17.81;67.93
64668;BME280;51077;42.716;23.344;2023-06-19T02:57:00;95465.41;;;17.80;67.93
64668;BME280;51077;42.716;23.344;2023-06-19T02:59:26;95458.38;;;17.79;67.86
64668;BME280;51077;42.716;23.344;2023-06-19T03:01:51;95465.22;;;17.78;67.75
64668;BME280;51077;42.716;23.344;2023-06-19T03:04:17;95468.00;;;17.78;67.94
64668;BME280;51077;42.716;23.344;2023-06-19T03:06:42;95458.94;;;17.78;67.90
64668;BME280;51077;42.716;23.344;2023-06-19T03:09:08;95465.78;;;17.77;67.81
64668;BME280;51077;42.716;23.344;2023-06-19T03:11:40;95466.53;;;17.77;67.80
64668;BME280;51077;42.716;23.344;2023-06-19T03:14:06;95465.06;;;17.76;67.83
64668;BME280;51077;42.716;23.344;2023-06-19T03:16:34;95465.06;;;17.76;67.91
64668;BME280;51077;42.716;23.344;2023-06-19T03:19:00;95464.28;;;17.76;67.93
64668;BME280;51077;42.716;23.344;2023-06-19T03:21:26;95465.78;;;17.77;67.85
64668;BME280;51077;42.716;23.344;2023-06-19T03:23:51;95458.75;;;17.76;67.85
64668;BME280;51077;42.716;23.344;2023-06-19T03:26:18;95453.19;;;17.76;68.06
64668;BME280;51077;42.716;23.344;2023-06-19T03:28:44;95463.75;;;17.77;67.85
64668;BME280;51077;42.716;23.344;2023-06-19T03:31:11;95460.25;;;17.77;67.99
64668;BME280;51077;42.716;23.344;2023-06-19T03:33:37;95473.56;;;17.78;67.80
64668;BME280;51077;42.716;23.344;2023-06-19T03:36:02;95475.03;;;17.79;67.68
64668;BME280;51077;42.716;23.344;2023-06-19T03:38:28;95464.13;;;17.81;67.95
64668;BME280;51077;42.716;23.344;2023-06-19T03:40:54;95465.03;;;17.84;67.76
64668;BME280;51077;42.716;23.344;2023-06-19T03:43:19;95456.91;;;17.86;67.97
64668;BME280;51077;42.716;23.344;2023-06-19T03:45:44;95465.41;;;17.88;67.86
64668;BME280;51077;42.716;23.344;2023-06-19T03:48:10;95466.88;;;17.89;67.73
64668;BME280;51077;42.716;23.344;2023-06-19T03:50:35;95463.00;;;17.92;67.77
64668;BME280;51077;42.716;23.344;2023-06-19T03:53:00;95470.22;;;17.95;67.65
64668;BME280;51077;42.716;23.344;2023-06-19T03:55:26;95462.06;;;17.97;67.67
64668;BME280;51077;42.716;23.344;2023-06-19T03:57:51;95465.94;;;18.02;67.46
64668;BME280;51077;42.716;23.344;2023-06-19T04:00:18;95462.63;;;18.03;67.45
64668;BME280;51077;42.716;23.344;2023-06-19T04:02:44;95460.41;;;18.09;67.49
64668;BME280;51077;42.716;23.344;2023-06-19T04:05:11;95459.28;;;18.13;67.27
64668;BME280;51077;42.716;23.344;2023-06-19T04:07:37;95453.34;;;18.16;67.23
64668;BME280;51077;42.716;23.344;2023-06-19T04:10:02;95465.38;;;18.19;67.24
64668;BME280;51077;42.716;23.344;2023-06-19T04:12:28;95460.38;;;18.25;67.16
64668;BME280;51077;42.716;23.344;2023-06-19T04:14:54;95465.72;;;18.30;67.14
64668;BME280;51077;42.716;23.344;2023-06-19T04:17:19;95465.38;;;18.34;67.00
64668;BME280;51077;42.716;23.344;2023-06-19T04:19:45;95462.94;;;18.38;67.00
64668;BME280;51077;42.716;23.344;2023-06-19T04:22:10;95462.75;;;18.44;66.73
64668;BME280;51077;42.716;23.344;2023-06-19T04:24:35;95464.56;;;18.49;66.75
64668;BME280;51077;42.716;23.344;2023-06-19T04:27:01;95467.91;;;18.55;66.67
64668;BME280;51077;42.716;23.344;2023-06-19T04:29:27;95465.66;;;18.61;66.15
64668;BME280;51077;42.716;23.344;2023-06-19T04:31:57;95465.44;;;18.67;66.33
64668;BME280;51077;42.716;23.344;2023-06-19T04:34:23;95460.47;;;18.73;66.17
64668;BME280;51077;42.716;23.344;2023-06-19T04:36:48;95462.28;;;18.78;65.96
64668;BME280;51077;42.716;23.344;2023-06-19T04:39:14;95465.78;;;18.86;65.89
64668;BME280;51077;42.716;23.344;2023-06-19T04:41:42;95462.22;;;18.93;65.95
64668;BME280;51077;42.716;23.344;2023-06-19T04:44:09;95471.84;;;19.00;65.53
64668;BME280;51077;42.716;23.344;2023-06-19T04:46:34;95461.97;;;19.06;65.37
64668;BME280;51077;42.716;23.344;2023-06-19T04:49:00;95472.50;;;19.16;65.14
64668;BME280;51077;42.716;23.344;2023-06-19T04:51:25;95469.50;;;19.21;64.93
64668;BME280;51077;42.716;23.344;2023-06-19T04:53:51;95463.13;;;19.28;64.59
64668;BME280;51077;42.716;23.344;2023-06-19T04:56:17;95459.00;;;19.37;64.50
64668;BME280;51077;42.716;23.344;2023-06-19T04:58:42;95456.75;;;19.43;64.27
64668;BME280;51077;42.716;23.344;2023-06-19T05:01:15;95461.84;;;19.54;64.25
64668;BME280;51077;42.716;23.344;2023-06-19T05:03:42;95461.09;;;19.62;63.75
64668;BME280;51077;42.716;23.344;2023-06-19T05:06:07;95463.09;;;19.69;63.34
64668;BME280;51077;42.716;23.344;2023-06-19T05:08:33;95461.72;;;19.77;63.27
64668;BME280;51077;42.716;23.344;2023-06-19T05:10:59;95463.16;;;19.86;62.84
64668;BME280;51077;42.716;23.344;2023-06-19T05:13:24;95467.91;;;19.93;62.23
64668;BME280;51077;42.716;23.344;2023-06-19T05:15:50;95467.09;;;20.00;62.16
64668;BME280;51077;42.716;23.344;2023-06-19T05:18:18;95461.81;;;20.12;61.88
64668;BME280;51077;42.716;23.344;2023-06-19T05:20:44;95467.28;;;20.20;61.78
64668;BME280;51077;42.716;23.344;2023-06-19T05:23:10;95467.22;;;20.27;61.39
64668;BME280;51077;42.716;23.344;2023-06-19T05:25:35;95467.16;;;20.35;61.23
64668;BME280;51077;42.716;23.344;2023-06-19T05:28:01;95469.28;;;20.44;60.88
64668;BME280;51077;42.716;23.344;2023-06-19T05:30:26;95481.13;;;20.52;60.89
64668;BME280;51077;42.716;23.344;2023-06-19T05:32:52;95483.13;;;20.60;60.53
64668;BME280;51077;42.716;23.344;2023-06-19T05:35:17;95484.34;;;20.66;60.03
64668;BME280;51077;42.716;23.344;2023-06-19T05:37:43;95493.34;;;20.74;59.95
64668;BME280;51077;42.716;23.344;2023-06-19T05:40:09;95490.50;;;20.82;59.38
64668;BME280;51077;42.716;23.344;2023-06-19T05:42:36;95497.59;;;20.93;59.22
64668;BME280;51077;42.716;23.344;2023-06-19T05:45:02;95494.72;;;21.00;59.31
64668;BME280;51077;42.716;23.344;2023-06-19T05:47:28;95500.22;;;21.08;59.01
64668;BME280;51077;42.716;23.344;2023-06-19T05:49:54;95501.00;;;21.18;58.40
64668;BME280;51077;42.716;23.344;2023-06-19T05:52:20;95494.59;;;21.25;58.28
64668;BME280;51077;42.716;23.344;2023-06-19T05:54:46;95494.50;;;21.33;57.89
64668;BME280;51077;42.716;23.344;2023-06-19T05:57:12;95490.88;;;21.40;57.79
64668;BME280;51077;42.716;23.344;2023-06-19T05:59:37;95494.31;;;21.48;57.69
64668;BME280;51077;42.716;23.344;2023-06-19T06:02:03;95497.75;;;21.56;57.61
64668;BME280;51077;42.716;23.344;2023-06-19T06:04:28;95495.59;;;21.65;57.24
64668;BME280;51077;42.716;23.344;2023-06-19T06:06:56;95499.00;;;21.73;57.23
64668;BME280;51077;42.716;23.344;2023-06-19T06:09:21;95498.31;;;21.82;56.70
64668;BME280;51077;42.716;23.344;2023-06-19T06:11:46;95501.72;;;21.90;56.90
64668;BME280;51077;42.716;23.344;2023-06-19T06:14:12;95491.00;;;21.96;56.59
64668;BME280;51077;42.716;23.344;2023-06-19T06:16:37;95497.78;;;22.03;56.52
64668;BME280;51077;42.716;23.344;2023-06-19T06:19:03;95497.84;;;22.13;56.16
64668;BME280;51077;42.716;23.344;2023-06-19T06:21:28;95502.72;;;22.22;55.91
64668;BME280;51077;42.716;23.344;2023-06-19T06:23:53;95497.75;;;22.30;55.71
64668;BME280;51077;42.716;23.344;2023-06-19T06:26:19;95502.59;;;22.39;55.70
64668;BME280;51077;42.716;23.344;2023-06-19T06:28:45;95506.00;;;22.47;55.38
64668;BME280;51077;42.716;23.344;2023-06-19T06:31:10;95502.19;;;22.52;55.19
64668;BME280;51077;42.716;23.344;2023-06-19T06:33:36;95499.41;;;22.62;54.75
64668;BME280;51077;42.716;23.344;2023-06-19T06:36:01;95504.13;;;22.69;54.91
64668;BME280;51077;42.716;23.344;2023-06-19T06:38:27;95505.28;;;22.76;54.98
64668;BME280;51077;42.716;23.344;2023-06-19T06:40:52;95510.16;;;22.85;54.75
64668;BME280;51077;42.716;23.344;2023-06-19T06:43:18;95504.72;;;22.97;54.38
64668;BME280;51077;42.716;23.344;2023-06-19T06:45:43;95510.31;;;23.06;54.33
64668;BME280;51077;42.716;23.344;2023-06-19T06:48:09;95511.63;;;23.15;54.20
64668;BME280;51077;42.716;23.344;2023-06-19T06:50:34;95513.56;;;23.22;53.88
64668;BME280;51077;42.716;23.344;2023-06-19T06:53:00;95510.72;;;23.32;53.48
64668;BME280;51077;42.716;23.344;2023-06-19T06:55:26;95500.84;;;23.41;53.15
64668;BME280;51077;42.716;23.344;2023-06-19T06:57:51;95504.94;;;23.49;53.24
64668;BME280;51077;42.716;23.344;2023-06-19T07:00:18;95506.41;;;23.60;52.90
64668;BME280;51077;42.716;23.344;2023-06-19T07:02:43;95501.38;;;23.68;52.66
64668;BME280;51077;42.716;23.344;2023-06-19T07:05:10;95511.84;;;23.77;52.30
64668;BME280;51077;42.716;23.344;2023-06-19T07:07:36;95513.25;;;23.88;52.53
64668;BME280;51077;42.716;23.344;2023-06-19T07:10:02;95508.94;;;23.97;52.03
64668;BME280;51077;42.716;23.344;2023-06-19T07:12:27;95510.25;;;24.05;51.82
64668;BME280;51077;42.716;23.344;2023-06-19T07:14:53;95508.13;;;24.16;51.45
64668;BME280;51077;42.716;23.344;2023-06-19T07:17:19;95513.69;;;24.25;51.26
64668;BME280;51077;42.716;23.344;2023-06-19T07:19:44;95503.75;;;24.34;51.07
64668;BME280;51077;42.716;23.344;2023-06-19T07:22:10;95504.44;;;24.44;50.84
64668;BME280;51077;42.716;23.344;2023-06-19T07:24:36;95504.25;;;24.52;50.07
64668;BME280;51077;42.716;23.344;2023-06-19T07:27:01;95508.91;;;24.59;49.77
64668;BME280;51077;42.716;23.344;2023-06-19T07:29:26;95512.41;;;24.69;49.77
64668;BME280;51077;42.716;23.344;2023-06-19T07:31:52;95508.81;;;24.78;49.13
64668;BME280;51077;42.716;23.344;2023-06-19T07:34:18;95513.72;;;24.90;49.14
64668;BME280;51077;42.716;23.344;2023-06-19T07:36:43;95511.59;;;25.00;48.81
64668;BME280;51077;42.716;23.344;2023-06-19T07:39:09;95517.16;;;25.10;48.34
64668;BME280;51077;42.716;23.344;2023-06-19T07:41:35;95514.38;;;25.21;47.85
64668;BME280;51077;42.716;23.344;2023-06-19T07:44:01;95515.91;;;25.34;47.20
64668;BME280;51077;42.716;23.344;2023-06-19T07:46:26;95510.28;;;25.46;47.31
64668;BME280;51077;42.716;23.344;2023-06-19T07:48:51;95514.59;;;25.58;47.33
64668;BME280;51077;42.716;23.344;2023-06-19T07:51:17;95509.13;;;25.72;46.57
64668;BME280;51077;42.716;23.344;2023-06-19T07:53:42;95515.03;;;25.88;46.24
64668;BME280;51077;42.716;23.344;2023-06-19T07:56:08;95513.09;;;26.02;45.51
64668;BME280;51077;42.716;23.344;2023-06-19T07:58:34;95514.56;;;26.15;44.83
64668;BME280;51077;42.716;23.344;2023-06-19T08:01:00;95504.75;;;26.28;44.43
64668;BME280;51077;42.716;23.344;2023-06-19T08:03:25;95514.03;;;26.42;44.13
64668;BME280;51077;42.716;23.344;2023-06-19T08:05:51;95514.94;;;26.56;44.13
64668;BME280;51077;42.716;23.344;2023-06-19T08:08:16;95510.22;;;26.73;43.73
64668;BME280;51077;42.716;23.344;2023-06-19T08:10:42;95513.88;;;26.87;42.86
64668;BME280;51077;42.716;23.344;2023-06-19T08:13:07;95504.75;;;27.00;42.38
64668;BME280;51077;42.716;23.344;2023-06-19T08:15:33;95504.72;;;27.12;42.44
64668;BME280;51077;42.716;23.344;2023-06-19T08:17:58;95503.44;;;27.27;42.24
64668;BME280;51077;42.716;23.344;2023-06-19T08:20:24;95507.69;;;27.40;41.71
64668;BME280;51077;42.716;23.344;2023-06-19T08:22:49;95502.19;;;27.55;41.53
64668;BME280;51077;42.716;23.344;2023-06-19T08:25:14;95507.25;;;27.71;41.28
64668;BME280;51077;42.716;23.344;2023-06-19T08:27:40;95505.94;;;27.86;40.19
64668;BME280;51077;42.716;23.344;2023-06-19T08:30:06;95500.13;;;27.95;40.10
64668;BME280;51077;42.716;23.344;2023-06-19T08:32:32;95512.16;;;28.10;39.92
64668;BME280;51077;42.716;23.344;2023-06-19T08:34:58;95508.41;;;28.19;39.67
64668;BME280;51077;42.716;23.344;2023-06-19T08:37:23;95509.13;;;28.33;39.16
64668;BME280;51077;42.716;23.344;2023-06-19T08:39:49;95509.06;;;28.45;38.90
64668;BME280;51077;42.716;23.344;2023-06-19T08:42:14;95506.66;;;28.53;38.90
64668;BME280;51077;42.716;23.344;2023-06-19T08:44:40;95508.09;;;28.68;38.64
64668;BME280;51077;42.716;23.344;2023-06-19T08:47:06;95504.63;;;28.83;38.28
64668;BME280;51077;42.716;23.344;2023-06-19T08:49:34;95495.25;;;28.94;38.16
64668;BME280;51077;42.716;23.344;2023-06-19T08:52:01;95499.56;;;29.09;37.28
64668;BME280;51077;42.716;23.344;2023-06-19T08:54:27;95508.31;;;29.15;37.42
64668;BME280;51077;42.716;23.344;2023-06-19T08:56:52;95504.63;;;29.26;36.95
64668;BME280;51077;42.716;23.344;2023-06-19T08:59:19;95500.72;;;29.34;36.73
64668;BME280;51077;42.716;23.344;2023-06-19T09:01:55;95500.91;;;29.38;36.13
64668;BME280;51077;42.716;23.344;2023-06-19T09:04:22;95503.41;;;29.45;36.17
64668;BME280;51077;42.716;23.344;2023-06-19T09:06:53;95503.66;;;29.51;35.85
64668;BME280;51077;42.716;23.344;2023-06-19T09:09:20;95504.19;;;29.62;35.85
64668;BME280;51077;42.716;23.344;2023-06-19T09:14:42;95499.28;;;29.78;34.98
64668;BME280;51077;42.716;23.344;2023-06-19T09:17:11;95496.72;;;29.84;34.81
64668;BME280;51077;42.716;23.344;2023-06-19T09:19:37;95495.72;;;29.93;34.73
64668;BME280;51077;42.716;23.344;2023-06-19T09:22:04;95490.50;;;30.03;34.71
64668;BME280;51077;42.716;23.344;2023-06-19T09:24:40;95501.78;;;30.17;34.65
64668;BME280;51077;42.716;23.344;2023-06-19T09:27:10;95491.63;;;30.28;34.60
64668;BME280;51077;42.716;23.344;2023-06-19T09:29:42;95499.09;;;30.37;34.09
64668;BME280;51077;42.716;23.344;2023-06-19T09:32:18;95487.66;;;30.51;34.26
64668;BME280;51077;42.716;23.344;2023-06-19T09:34:44;95491.72;;;30.64;34.17
64668;BME280;51077;42.716;23.344;2023-06-19T09:37:09;95488.06;;;30.77;33.65
64668;BME280;51077;42.716;23.344;2023-06-19T09:39:39;95490.13;;;30.92;33.82
64668;BME280;51077;42.716;23.344;2023-06-19T09:42:08;95489.06;;;31.01;33.51
64668;BME280;51077;42.716;23.344;2023-06-19T09:44:42;95497.97;;;31.12;33.09
64668;BME280;51077;42.716;23.344;2023-06-19T09:47:17;95490.69;;;31.24;33.23
64668;BME280;51077;42.716;23.344;2023-06-19T09:49:49;95486.97;;;31.38;32.86
64668;BME280;51077;42.716;23.344;2023-06-19T09:52:18;95485.44;;;31.52;32.78
64668;BME280;51077;42.716;23.344;2023-06-19T09:54:46;95477.38;;;31.65;32.39
64668;BME280;51077;42.716;23.344;2023-06-19T09:57:11;95488.41;;;31.74;31.86
64668;BME280;51077;42.716;23.344;2023-06-19T09:59:39;95483.88;;;31.85;31.04
64668;BME280;51077;42.716;23.344;2023-06-19T10:02:06;95480.09;;;31.98;31.09
64668;BME280;51077;42.716;23.344;2023-06-19T10:04:42;95475.38;;;32.05;31.23
64668;BME280;51077;42.716;23.344;2023-06-19T10:07:18;95468.66;;;32.16;31.10
64668;BME280;51077;42.716;23.344;2023-06-19T10:10:07;95471.13;;;32.26;31.02
64668;BME280;51077;42.716;23.344;2023-06-19T10:17:34;95460.94;;;32.59;30.67
64668;BME280;51077;42.716;23.344;2023-06-19T10:20:00;95462.75;;;32.70;30.33
64668;BME280;51077;42.716;23.344;2023-06-19T10:22:30;95454.69;;;32.84;30.43
64668;BME280;51077;42.716;23.344;2023-06-19T10:24:56;95463.72;;;32.98;30.49
64668;BME280;51077;42.716;23.344;2023-06-19T10:27:22;95458.44;;;33.11;29.84
64668;BME280;51077;42.716;23.344;2023-06-19T10:29:54;95455.84;;;33.19;29.93
64668;BME280;51077;42.716;23.344;2023-06-19T10:32:20;95449.03;;;33.28;29.57
64668;BME280;51077;42.716;23.344;2023-06-19T10:34:47;95457.25;;;33.42;29.46
64668;BME280;51077;42.716;23.344;2023-06-19T10:37:14;95446.88;;;33.50;29.02
64668;BME280;51077;42.716;23.344;2023-06-19T10:39:40;95449.91;;;33.57;28.64
64668;BME280;51077;42.716;23.344;2023-06-19T10:42:09;95448.03;;;33.65;28.82
64668;BME280;51077;42.716;23.344;2023-06-19T10:44:35;95444.31;;;33.37;29.14
64668;BME280;51077;42.716;23.344;2023-06-19T10:47:03;95446.88;;;33.05;29.41
64668;BME280;51077;42.716;23.344;2023-06-19T10:49:29;95443.66;;;32.72;29.83
64668;BME280;51077;42.716;23.344;2023-06-19T10:51:55;95444.63;;;32.81;30.20
64668;BME280;51077;42.716;23.344;2023-06-19T10:54:33;95434.09;;;33.06;30.06
64668;BME280;51077;42.716;23.344;2023-06-19T10:56:58;95439.09;;;33.29;29.68
64668;BME280;51077;42.716;23.344;2023-06-19T10:59:28;95442.13;;;33.57;29.51
64668;BME280;51077;42.716;23.344;2023-06-19T11:01:53;95439.00;;;33.73;29.03
64668;BME280;51077;42.716;23.344;2023-06-19T11:04:19;95441.50;;;33.61;29.49
64668;BME280;51077;42.716;23.344;2023-06-19T11:06:45;95441.06;;;33.46;29.75
64668;BME280;51077;42.716;23.344;2023-06-19T11:09:12;95433.94;;;33.23;29.63
64668;BME280;51077;42.716;23.344;2023-06-19T11:11:48;95427.34;;;32.95;30.34
64668;BME280;51077;42.716;23.344;2023-06-19T11:14:15;95437.19;;;32.70;30.47
64668;BME280;51077;42.716;23.344;2023-06-19T11:16:45;95427.09;;;32.45;30.91
64668;BME280;51077;42.716;23.344;2023-06-19T11:19:16;95425.91;;;32.32;31.21
64668;BME280;51077;42.716;23.344;2023-06-19T11:21:48;95422.94;;;32.28;31.09
64668;BME280;51077;42.716;23.344;2023-06-19T11:24:14;95421.78;;;32.35;31.06
64668;BME280;51077;42.716;23.344;2023-06-19T11:26:44;95423.44;;;32.42;30.69
64668;BME280;51077;42.716;23.344;2023-06-19T11:29:22;95421.56;;;32.49;30.64
64668;BME280;51077;42.716;23.344;2023-06-19T11:31:48;95417.72;;;32.40;30.72
64668;BME280;51077;42.716;23.344;2023-06-19T11:34:15;95416.31;;;32.21;31.41
64668;BME280;51077;42.716;23.344;2023-06-19T11:36:41;95416.19;;;31.97;32.01
64668;BME280;51077;42.716;23.344;2023-06-19T11:39:14;95416.81;;;31.76;32.23
64668;BME280;51077;42.716;23.344;2023-06-19T11:41:41;95411.78;;;31.74;32.35
64668;BME280;51077;42.716;23.344;2023-06-19T11:44:08;95413.00;;;31.69;32.30
64668;BME280;51077;42.716;23.344;2023-06-19T11:46:37;95412.06;;;31.63;32.87
64668;BME280;51077;42.716;23.344;2023-06-19T11:49:13;95408.09;;;31.90;32.41
64668;BME280;51077;42.716;23.344;2023-06-19T11:51:39;95402.34;;;32.08;32.25
64668;BME280;51077;42.716;23.344;2023-06-19T11:54:06;95396.38;;;32.39;31.57
64668;BME280;51077;42.716;23.344;2023-06-19T11:56:34;95395.59;;;32.59;31.51
64668;BME280;51077;42.716;23.344;2023-06-19T11:58:59;95400.41;;;32.76;30.96
64668;BME280;51077;42.716;23.344;2023-06-19T12:01:25;95406.69;;;32.50;31.29
64668;BME280;51077;42.716;23.344;2023-06-19T12:03:51;95407.06;;;32.21;31.52
64668;BME280;51077;42.716;23.344;2023-06-19T12:06:17;95400.53;;;31.96;32.21
64668;BME280;51077;42.716;23.344;2023-06-19T12:08:43;95402.59;;;31.76;32.73
64668;BME280;51077;42.716;23.344;2023-06-19T12:11:09;95401.13;;;31.55;33.11
64668;BME280;51077;42.716;23.344;2023-06-19T12:13:35;95402.56;;;31.36;33.44
64668;BME280;51077;42.716;23.344;2023-06-19T12:16:01;95408.06;;;31.14;33.39
64668;BME280;51077;42.716;23.344;2023-06-19T12:18:27;95398.84;;;30.96;33.95
64668;BME280;51077;42.716;23.344;2023-06-19T12:20:52;95407.44;;;30.80;34.36
64668;BME280;51077;42.716;23.344;2023-06-19T12:23:18;95393.00;;;31.10;33.87
64668;BME280;51077;42.716;23.344;2023-06-19T12:25:44;95392.47;;;31.51;33.20
64668;BME280;51077;42.716;23.344;2023-06-19T12:28:09;95392.50;;;31.91;32.69
64668;BME280;51077;42.716;23.344;2023-06-19T12:30:36;95383.75;;;32.24;32.08
64668;BME280;51077;42.716;23.344;2023-06-19T12:33:02;95385.22;;;32.45;31.56
64668;BME280;51077;42.716;23.344;2023-06-19T12:35:29;95382.41;;;32.47;31.33
64668;BME280;51077;42.716;23.344;2023-06-19T12:37:54;95386.00;;;32.48;31.29
64668;BME280;51077;42.716;23.344;2023-06-19T12:40:20;95382.19;;;32.61;30.98
64668;BME280;51077;42.716;23.344;2023-06-19T12:42:45;95386.47;;;32.40;31.56
64668;BME280;51077;42.716;23.344;2023-06-19T12:45:11;95385.59;;;32.16;31.77
64668;BME280;51077;42.716;23.344;2023-06-19T12:47:37;95380.09;;;32.00;32.09
64668;BME280;51077;42.716;23.344;2023-06-19T12:50:03;95383.50;;;31.96;32.09
64668;BME280;51077;42.716;23.344;2023-06-19T12:52:29;95384.59;;;32.07;31.43
64668;BME280;51077;42.716;23.344;2023-06-19T12:54:56;95381.44;;;31.99;31.64
64668;BME280;51077;42.716;23.344;2023-06-19T12:57:21;95376.44;;;31.97;31.49
64668;BME280;51077;42.716;23.344;2023-06-19T12:59:47;95384.28;;;31.99;31.82
64668;BME280;51077;42.716;23.344;2023-06-19T13:02:12;95379.81;;;31.92;31.57
64668;BME280;51077;42.716;23.344;2023-06-19T13:04:38;95384.81;;;31.93;31.46
64668;BME280;51077;42.716;23.344;2023-06-19T13:07:03;95390.13;;;31.83;31.48
64668;BME280;51077;42.716;23.344;2023-06-19T13:09:28;95380.28;;;31.66;32.10
64668;BME280;51077;42.716;23.344;2023-06-19T13:11:55;95384.97;;;31.60;32.01
64668;BME280;51077;42.716;23.344;2023-06-19T13:14:20;95374.22;;;31.56;32.10
64668;BME280;51077;42.716;23.344;2023-06-19T13:16:46;95370.31;;;31.65;31.99
64668;BME280;51077;42.716;23.344;2023-06-19T13:19:11;95372.06;;;31.74;31.71
64668;BME280;51077;42.716;23.344;2023-06-19T13:21:36;95375.28;;;31.85;31.47